sensor_id;sensor_type;location;lat;lon;timestamp;temperature;humidity
24087;DHT22;22893;50.572;7.234;2023-03-01T00:01:39;21.20;45.10
24087;DHT22;22893;50.572;7.234;2023-03-01T00:04:07;21.10;44.90
24087;DHT22;22893;50.572;7.234;2023-03-01T00:06:34;21.10;45.10
24087;DHT22;22893;50.572;7.234;2023-03-01T00:09:03;21.20;45.00
24087;DHT22;22893;50.572;7.234;2023-03-01T00:11:32;21.10;44.90
24087;DHT22;22893;50.572;7.234;2023-03-01T00:14:01;21.20;45.00
24087;DHT22;22893;50.572;7.234;2023-03-01T00:16:39;21.20;44.80
24087;DHT22;22893;50.572;7.234;2023-03-01T00:19:18;21.20;44.90
24087;DHT22;22893;50.572;7.234;2023-03-01T00:21:46;21.10;44.90
24087;DHT22;22893;50.572;7.234;2023-03-01T00:24:14;21.10;44.80
24087;DHT22;22893;50.572;7.234;2023-03-01T00:26:42;21.10;44.80
24087;DHT22;22893;50.572;7.234;2023-03-01T00:29:09;21.10;44.80
24087;DHT22;22893;50.572;7.234;2023-03-01T00:31:37;21.10;44.60
24087;DHT22;22893;50.572;7.234;2023-03-01T00:34:05;21.10;44.80
24087;DHT22;22893;50.572;7.234;2023-03-01T00:36:35;21.10;44.60
24087;DHT22;22893;50.572;7.234;2023-03-01T00:39:05;21.10;44.70
24087;DHT22;22893;50.572;7.234;2023-03-01T00:41:33;21.10;44.70
24087;DHT22;22893;50.572;7.234;2023-03-01T00:44:01;21.10;44.60
24087;DHT22;22893;50.572;7.234;2023-03-01T00:46:29;21.10;44.60
24087;DHT22;22893;50.572;7.234;2023-03-01T00:49:00;21.10;44.50
24087;DHT22;22893;50.572;7.234;2023-03-01T00:51:29;21.10;44.50
24087;DHT22;22893;50.572;7.234;2023-03-01T00:54:00;21.10;44.50
24087;DHT22;22893;50.572;7.234;2023-03-01T00:56:29;21.10;44.50
24087;DHT22;22893;50.572;7.234;2023-03-01T00:58:57;21.10;44.50
24087;DHT22;22893;50.572;7.234;2023-03-01T01:01:27;21.10;44.50
24087;DHT22;22893;50.572;7.234;2023-03-01T01:04:00;21.10;44.30
24087;DHT22;22893;50.572;7.234;2023-03-01T01:06:33;21.10;44.60
24087;DHT22;22893;50.572;7.234;2023-03-01T01:09:02;21.10;44.50
24087;DHT22;22893;50.572;7.234;2023-03-01T01:11:31;21.10;44.50
24087;DHT22;22893;50.572;7.234;2023-03-01T01:13:59;21.10;44.50
24087;DHT22;22893;50.572;7.234;2023-03-01T01:16:28;21.10;44.40
24087;DHT22;22893;50.572;7.234;2023-03-01T01:18:57;21.00;44.30
24087;DHT22;22893;50.572;7.234;2023-03-01T01:21:25;21.10;44.50
24087;DHT22;22893;50.572;7.234;2023-03-01T01:23:54;21.00;44.40
24087;DHT22;22893;50.572;7.234;2023-03-01T01:26:29;21.00;44.20
24087;DHT22;22893;50.572;7.234;2023-03-01T01:28:58;21.00;44.30
24087;DHT22;22893;50.572;7.234;2023-03-01T01:31:26;21.00;44.40
24087;DHT22;22893;50.572;7.234;2023-03-01T01:33:55;21.00;44.40
24087;DHT22;22893;50.572;7.234;2023-03-01T01:36:23;21.00;44.20
24087;DHT22;22893;50.572;7.234;2023-03-01T01:38:51;21.00;44.40
24087;DHT22;22893;50.572;7.234;2023-03-01T01:41:19;21.00;44.50
24087;DHT22;22893;50.572;7.234;2023-03-01T01:44:09;21.00;44.30
24087;DHT22;22893;50.572;7.234;2023-03-01T01:46:28;21.00;44.40
24087;DHT22;22893;50.572;7.234;2023-03-01T01:49:03;21.00;44.50
24087;DHT22;22893;50.572;7.234;2023-03-01T01:51:37;21.00;44.60
24087;DHT22;22893;50.572;7.234;2023-03-01T01:54:19;21.00;44.30
24087;DHT22;22893;50.572;7.234;2023-03-01T01:56:50;21.00;44.40
24087;DHT22;22893;50.572;7.234;2023-03-01T01:59:17;21.00;44.30
24087;DHT22;22893;50.572;7.234;2023-03-01T02:01:44;21.00;45.20
24087;DHT22;22893;50.572;7.234;2023-03-01T02:04:12;21.00;44.40
24087;DHT22;22893;50.572;7.234;2023-03-01T02:06:49;21.00;44.40
24087;DHT22;22893;50.572;7.234;2023-03-01T02:09:14;21.00;44.40
24087;DHT22;22893;50.572;7.234;2023-03-01T02:11:44;21.00;44.40
24087;DHT22;22893;50.572;7.234;2023-03-01T02:14:11;20.90;44.20
24087;DHT22;22893;50.572;7.234;2023-03-01T02:16:39;20.90;44.40
24087;DHT22;22893;50.572;7.234;2023-03-01T02:19:10;21.00;44.20
24087;DHT22;22893;50.572;7.234;2023-03-01T02:22:01;21.00;44.50
24087;DHT22;22893;50.572;7.234;2023-03-01T02:24:34;20.90;44.40
24087;DHT22;22893;50.572;7.234;2023-03-01T02:27:01;20.90;44.40
24087;DHT22;22893;50.572;7.234;2023-03-01T02:29:29;20.90;44.20
24087;DHT22;22893;50.572;7.234;2023-03-01T02:31:59;21.00;44.30
24087;DHT22;22893;50.572;7.234;2023-03-01T02:34:28;20.90;44.40
24087;DHT22;22893;50.572;7.234;2023-03-01T02:37:01;20.90;44.20
24087;DHT22;22893;50.572;7.234;2023-03-01T02:39:44;20.90;44.50
24087;DHT22;22893;50.572;7.234;2023-03-01T02:42:11;20.90;44.20
24087;DHT22;22893;50.572;7.234;2023-03-01T02:44:38;20.90;44.40
24087;DHT22;22893;50.572;7.234;2023-03-01T02:47:06;20.90;44.40
24087;DHT22;22893;50.572;7.234;2023-03-01T02:49:36;20.90;44.40
24087;DHT22;22893;50.572;7.234;2023-03-01T02:57:23;20.90;44.40
24087;DHT22;22893;50.572;7.234;2023-03-01T02:59:55;20.90;44.00
24087;DHT22;22893;50.572;7.234;2023-03-01T03:02:26;20.90;44.00
24087;DHT22;22893;50.572;7.234;2023-03-01T03:05:14;20.90;44.00
24087;DHT22;22893;50.572;7.234;2023-03-01T03:07:44;20.90;44.10
24087;DHT22;22893;50.572;7.234;2023-03-01T03:10:15;20.90;44.50
24087;DHT22;22893;50.572;7.234;2023-03-01T03:12:42;20.80;44.30
24087;DHT22;22893;50.572;7.234;2023-03-01T03:15:11;20.90;44.10
24087;DHT22;22893;50.572;7.234;2023-03-01T03:17:40;20.80;44.30
24087;DHT22;22893;50.572;7.234;2023-03-01T03:20:11;20.80;43.90
24087;DHT22;22893;50.572;7.234;2023-03-01T03:22:40;20.80;44.30
24087;DHT22;22893;50.572;7.234;2023-03-01T03:25:08;20.80;44.20
24087;DHT22;22893;50.572;7.234;2023-03-01T03:27:40;20.80;44.20
24087;DHT22;22893;50.572;7.234;2023-03-01T03:30:10;20.80;44.20
24087;DHT22;22893;50.572;7.234;2023-03-01T03:32:40;20.80;44.20
24087;DHT22;22893;50.572;7.234;2023-03-01T03:35:09;20.80;44.00
24087;DHT22;22893;50.572;7.234;2023-03-01T03:37:38;20.80;44.20
24087;DHT22;22893;50.572;7.234;2023-03-01T03:40:25;20.80;44.10
24087;DHT22;22893;50.572;7.234;2023-03-01T03:42:52;20.80;43.50
24087;DHT22;22893;50.572;7.234;2023-03-01T03:45:20;20.80;44.00
24087;DHT22;22893;50.572;7.234;2023-03-01T03:47:48;20.80;44.10
24087;DHT22;22893;50.572;7.234;2023-03-01T03:50:16;20.80;44.10
24087;DHT22;22893;50.572;7.234;2023-03-01T03:52:44;20.80;44.00
24087;DHT22;22893;50.572;7.234;2023-03-01T03:55:12;20.80;44.10
24087;DHT22;22893;50.572;7.234;2023-03-01T03:57:41;20.80;43.90
24087;DHT22;22893;50.572;7.234;2023-03-01T04:00:12;20.80;44.00
24087;DHT22;22893;50.572;7.234;2023-03-01T04:02:41;20.80;44.10
24087;DHT22;22893;50.572;7.234;2023-03-01T04:05:11;20.80;44.10
24087;DHT22;22893;50.572;7.234;2023-03-01T04:07:39;20.80;44.00
24087;DHT22;22893;50.572;7.234;2023-03-01T04:10:12;20.80;44.10
24087;DHT22;22893;50.572;7.234;2023-03-01T04:12:40;20.80;44.20
24087;DHT22;22893;50.572;7.234;2023-03-01T04:15:10;20.80;43.60
24087;DHT22;22893;50.572;7.234;2023-03-01T04:17:41;20.70;44.30
24087;DHT22;22893;50.572;7.234;2023-03-01T04:20:10;20.80;44.40
24087;DHT22;22893;50.572;7.234;2023-03-01T04:22:39;20.80;44.00
24087;DHT22;22893;50.572;7.234;2023-03-01T04:25:08;20.80;44.40
24087;DHT22;22893;50.572;7.234;2023-03-01T04:27:36;20.70;44.30
24087;DHT22;22893;50.572;7.234;2023-03-01T04:30:04;20.70;44.40
24087;DHT22;22893;50.572;7.234;2023-03-01T04:32:31;20.80;44.20
24087;DHT22;22893;50.572;7.234;2023-03-01T04:34:59;20.70;44.20
24087;DHT22;22893;50.572;7.234;2023-03-01T04:37:27;20.80;44.30
24087;DHT22;22893;50.572;7.234;2023-03-01T04:39:56;20.70;44.20
24087;DHT22;22893;50.572;7.234;2023-03-01T04:42:23;20.70;44.30
24087;DHT22;22893;50.572;7.234;2023-03-01T04:44:51;20.70;44.30
24087;DHT22;22893;50.572;7.234;2023-03-01T04:47:18;20.80;44.80
24087;DHT22;22893;50.572;7.234;2023-03-01T04:49:46;20.70;44.00
24087;DHT22;22893;50.572;7.234;2023-03-01T04:52:13;20.80;44.20
24087;DHT22;22893;50.572;7.234;2023-03-01T04:54:41;20.70;44.10
24087;DHT22;22893;50.572;7.234;2023-03-01T04:57:09;20.70;44.60
24087;DHT22;22893;50.572;7.234;2023-03-01T04:59:37;20.40;38.30
24087;DHT22;22893;50.572;7.234;2023-03-01T05:02:04;20.20;41.90
24087;DHT22;22893;50.572;7.234;2023-03-01T05:04:32;20.30;42.80
24087;DHT22;22893;50.572;7.234;2023-03-01T05:06:59;20.10;38.70
24087;DHT22;22893;50.572;7.234;2023-03-01T05:09:27;20.00;40.70
24087;DHT22;22893;50.572;7.234;2023-03-01T05:11:54;20.20;42.60
24087;DHT22;22893;50.572;7.234;2023-03-01T05:14:41;20.30;43.30
24087;DHT22;22893;50.572;7.234;2023-03-01T05:17:08;20.40;43.60
24087;DHT22;22893;50.572;7.234;2023-03-01T05:19:36;20.40;44.00
24087;DHT22;22893;50.572;7.234;2023-03-01T05:22:03;20.40;43.90
24087;DHT22;22893;50.572;7.234;2023-03-01T05:24:33;20.50;43.80
24087;DHT22;22893;50.572;7.234;2023-03-01T05:27:02;20.50;43.80
24087;DHT22;22893;50.572;7.234;2023-03-01T05:29:32;20.50;43.80
24087;DHT22;22893;50.572;7.234;2023-03-01T05:32:01;20.50;43.80
24087;DHT22;22893;50.572;7.234;2023-03-01T05:34:34;20.50;43.90
24087;DHT22;22893;50.572;7.234;2023-03-01T05:37:04;20.50;43.90
24087;DHT22;22893;50.572;7.234;2023-03-01T05:39:33;20.50;43.90
24087;DHT22;22893;50.572;7.234;2023-03-01T05:42:01;20.50;44.00
24087;DHT22;22893;50.572;7.234;2023-03-01T05:44:29;20.50;43.90
24087;DHT22;22893;50.572;7.234;2023-03-01T05:46:57;20.60;44.10
24087;DHT22;22893;50.572;7.234;2023-03-01T05:49:24;20.60;44.10
24087;DHT22;22893;50.572;7.234;2023-03-01T05:51:53;20.60;44.20
24087;DHT22;22893;50.572;7.234;2023-03-01T05:54:21;20.50;43.80
24087;DHT22;22893;50.572;7.234;2023-03-01T05:56:49;20.60;43.80
24087;DHT22;22893;50.572;7.234;2023-03-01T05:59:16;20.60;43.80
24087;DHT22;22893;50.572;7.234;2023-03-01T06:01:44;20.60;43.50
24087;DHT22;22893;50.572;7.234;2023-03-01T06:04:11;20.60;43.50
24087;DHT22;22893;50.572;7.234;2023-03-01T06:06:39;20.60;43.60
24087;DHT22;22893;50.572;7.234;2023-03-01T06:09:07;20.60;43.70
24087;DHT22;22893;50.572;7.234;2023-03-01T06:11:36;20.60;43.50
24087;DHT22;22893;50.572;7.234;2023-03-01T06:14:05;20.60;43.50
24087;DHT22;22893;50.572;7.234;2023-03-01T06:16:34;20.60;43.60
24087;DHT22;22893;50.572;7.234;2023-03-01T06:19:01;20.60;43.60
24087;DHT22;22893;50.572;7.234;2023-03-01T06:21:29;20.60;43.50
24087;DHT22;22893;50.572;7.234;2023-03-01T06:23:57;20.60;43.50
24087;DHT22;22893;50.572;7.234;2023-03-01T06:26:24;20.60;43.70
24087;DHT22;22893;50.572;7.234;2023-03-01T06:28:52;20.60;43.60
24087;DHT22;22893;50.572;7.234;2023-03-01T06:31:19;20.60;43.60
24087;DHT22;22893;50.572;7.234;2023-03-01T06:33:47;20.60;43.50
24087;DHT22;22893;50.572;7.234;2023-03-01T06:36:14;20.70;43.70
24087;DHT22;22893;50.572;7.234;2023-03-01T06:38:44;20.60;43.50
24087;DHT22;22893;50.572;7.234;2023-03-01T06:41:11;20.60;43.60
24087;DHT22;22893;50.572;7.234;2023-03-01T06:43:39;20.70;43.50
24087;DHT22;22893;50.572;7.234;2023-03-01T06:46:06;20.60;43.70
24087;DHT22;22893;50.572;7.234;2023-03-01T06:48:34;20.70;43.60
24087;DHT22;22893;50.572;7.234;2023-03-01T06:51:02;20.60;43.50
24087;DHT22;22893;50.572;7.234;2023-03-01T06:53:29;20.70;43.70
24087;DHT22;22893;50.572;7.234;2023-03-01T06:55:57;20.60;43.50
24087;DHT22;22893;50.572;7.234;2023-03-01T06:58:26;20.60;43.60
24087;DHT22;22893;50.572;7.234;2023-03-01T07:00:54;20.60;43.50
24087;DHT22;22893;50.572;7.234;2023-03-01T07:03:22;20.70;43.70
24087;DHT22;22893;50.572;7.234;2023-03-01T07:05:50;20.70;43.60
24087;DHT22;22893;50.572;7.234;2023-03-01T07:08:21;20.70;43.60
24087;DHT22;22893;50.572;7.234;2023-03-01T07:10:48;20.70;43.50
24087;DHT22;22893;50.572;7.234;2023-03-01T07:13:15;20.70;43.70
24087;DHT22;22893;50.572;7.234;2023-03-01T07:15:43;20.70;43.60
24087;DHT22;22893;50.572;7.234;2023-03-01T07:18:11;20.60;43.60
24087;DHT22;22893;50.572;7.234;2023-03-01T07:20:38;20.70;43.60
24087;DHT22;22893;50.572;7.234;2023-03-01T07:23:06;20.70;43.60
24087;DHT22;22893;50.572;7.234;2023-03-01T07:25:34;20.70;43.70
24087;DHT22;22893;50.572;7.234;2023-03-01T07:28:01;20.70;43.70
24087;DHT22;22893;50.572;7.234;2023-03-01T07:30:29;20.70;43.60
24087;DHT22;22893;50.572;7.234;2023-03-01T07:32:57;20.70;43.60
24087;DHT22;22893;50.572;7.234;2023-03-01T07:35:26;20.70;43.50
24087;DHT22;22893;50.572;7.234;2023-03-01T07:37:54;20.70;43.70
24087;DHT22;22893;50.572;7.234;2023-03-01T07:40:21;20.70;43.70
24087;DHT22;22893;50.572;7.234;2023-03-01T07:42:49;20.70;43.60
24087;DHT22;22893;50.572;7.234;2023-03-01T07:45:16;20.70;43.60
24087;DHT22;22893;50.572;7.234;2023-03-01T07:47:44;20.70;43.50
24087;DHT22;22893;50.572;7.234;2023-03-01T07:50:11;20.70;43.70
24087;DHT22;22893;50.572;7.234;2023-03-01T07:52:40;20.70;43.40
24087;DHT22;22893;50.572;7.234;2023-03-01T07:55:08;20.70;43.70
24087;DHT22;22893;50.572;7.234;2023-03-01T07:57:35;20.70;43.60
24087;DHT22;22893;50.572;7.234;2023-03-01T08:00:03;20.70;43.70
24087;DHT22;22893;50.572;7.234;2023-03-01T08:02:31;20.70;43.70
24087;DHT22;22893;50.572;7.234;2023-03-01T08:04:58;20.70;43.70
24087;DHT22;22893;50.572;7.234;2023-03-01T08:07:26;20.70;43.60
24087;DHT22;22893;50.572;7.234;2023-03-01T08:09:54;20.70;43.70
24087;DHT22;22893;50.572;7.234;2023-03-01T08:12:21;20.70;43.70
24087;DHT22;22893;50.572;7.234;2023-03-01T08:14:49;20.70;43.70
24087;DHT22;22893;50.572;7.234;2023-03-01T08:17:16;20.70;43.70
24087;DHT22;22893;50.572;7.234;2023-03-01T08:19:44;20.70;43.70
24087;DHT22;22893;50.572;7.234;2023-03-01T08:22:12;20.70;43.70
24087;DHT22;22893;50.572;7.234;2023-03-01T08:24:39;20.70;43.80
24087;DHT22;22893;50.572;7.234;2023-03-01T08:27:07;20.70;43.70
24087;DHT22;22893;50.572;7.234;2023-03-01T08:29:35;20.70;43.80
24087;DHT22;22893;50.572;7.234;2023-03-01T08:32:03;20.70;44.60
24087;DHT22;22893;50.572;7.234;2023-03-01T08:34:30;20.70;43.80
24087;DHT22;22893;50.572;7.234;2023-03-01T08:36:58;20.70;43.80
24087;DHT22;22893;50.572;7.234;2023-03-01T08:39:25;20.70;43.80
24087;DHT22;22893;50.572;7.234;2023-03-01T08:41:53;20.70;43.70
24087;DHT22;22893;50.572;7.234;2023-03-01T08:44:21;20.70;43.80
24087;DHT22;22893;50.572;7.234;2023-03-01T08:46:49;20.70;43.80
24087;DHT22;22893;50.572;7.234;2023-03-01T08:49:20;20.80;43.90
24087;DHT22;22893;50.572;7.234;2023-03-01T08:51:48;20.80;43.80
24087;DHT22;22893;50.572;7.234;2023-03-01T08:54:17;20.70;43.80
24087;DHT22;22893;50.572;7.234;2023-03-01T08:56:46;20.80;43.90
24087;DHT22;22893;50.572;7.234;2023-03-01T08:59:15;20.80;44.00
24087;DHT22;22893;50.572;7.234;2023-03-01T09:01:44;20.70;43.90
24087;DHT22;22893;50.572;7.234;2023-03-01T09:04:12;20.80;44.00
24087;DHT22;22893;50.572;7.234;2023-03-01T09:06:40;20.80;44.00
24087;DHT22;22893;50.572;7.234;2023-03-01T09:09:16;20.80;44.10
24087;DHT22;22893;50.572;7.234;2023-03-01T09:11:46;20.80;44.00
24087;DHT22;22893;50.572;7.234;2023-03-01T09:14:16;20.80;44.10
24087;DHT22;22893;50.572;7.234;2023-03-01T09:16:43;20.80;44.00
24087;DHT22;22893;50.572;7.234;2023-03-01T09:19:11;20.80;44.10
24087;DHT22;22893;50.572;7.234;2023-03-01T09:21:40;20.80;44.10
24087;DHT22;22893;50.572;7.234;2023-03-01T09:24:12;20.80;44.70
24087;DHT22;22893;50.572;7.234;2023-03-01T09:26:41;20.80;44.10
24087;DHT22;22893;50.572;7.234;2023-03-01T09:29:08;20.80;44.10
24087;DHT22;22893;50.572;7.234;2023-03-01T09:31:36;20.80;44.10
24087;DHT22;22893;50.572;7.234;2023-03-01T09:34:04;20.80;44.10
24087;DHT22;22893;50.572;7.234;2023-03-01T09:36:32;20.80;44.10
24087;DHT22;22893;50.572;7.234;2023-03-01T09:39:00;20.80;44.20
24087;DHT22;22893;50.572;7.234;2023-03-01T09:41:46;20.80;44.20
24087;DHT22;22893;50.572;7.234;2023-03-01T09:44:29;20.80;44.30
24087;DHT22;22893;50.572;7.234;2023-03-01T09:46:58;20.80;44.30
24087;DHT22;22893;50.572;7.234;2023-03-01T09:49:28;20.80;44.20
24087;DHT22;22893;50.572;7.234;2023-03-01T09:51:59;20.80;44.40
24087;DHT22;22893;50.572;7.234;2023-03-01T09:54:28;20.80;44.30
24087;DHT22;22893;50.572;7.234;2023-03-01T10:10:32;20.90;44.50
24087;DHT22;22893;50.572;7.234;2023-03-01T10:12:58;20.90;44.60
24087;DHT22;22893;50.572;7.234;2023-03-01T10:15:34;20.90;44.60
24087;DHT22;22893;50.572;7.234;2023-03-01T10:18:06;20.90;44.60
24087;DHT22;22893;50.572;7.234;2023-03-01T10:23:10;20.90;45.40
24087;DHT22;22893;50.572;7.234;2023-03-01T10:30:58;20.90;44.80
24087;DHT22;22893;50.572;7.234;2023-03-01T10:33:32;20.90;44.90
24087;DHT22;22893;50.572;7.234;2023-03-01T10:36:00;20.90;44.90
24087;DHT22;22893;50.572;7.234;2023-03-01T10:38:31;20.90;44.90
24087;DHT22;22893;50.572;7.234;2023-03-01T10:41:09;20.90;45.00
24087;DHT22;22893;50.572;7.234;2023-03-01T10:43:48;20.90;45.00
24087;DHT22;22893;50.572;7.234;2023-03-01T10:49:15;20.90;45.00
24087;DHT22;22893;50.572;7.234;2023-03-01T10:51:45;21.00;45.10
24087;DHT22;22893;50.572;7.234;2023-03-01T10:54:19;21.00;45.10
24087;DHT22;22893;50.572;7.234;2023-03-01T10:56:51;21.00;45.10
24087;DHT22;22893;50.572;7.234;2023-03-01T10:59:34;21.00;45.20
24087;DHT22;22893;50.572;7.234;2023-03-01T11:02:28;21.00;45.30
24087;DHT22;22893;50.572;7.234;2023-03-01T11:04:58;21.00;45.30
24087;DHT22;22893;50.572;7.234;2023-03-01T11:07:26;21.00;45.30
24087;DHT22;22893;50.572;7.234;2023-03-01T11:09:54;21.00;45.80
24087;DHT22;22893;50.572;7.234;2023-03-01T11:12:22;21.00;45.40
24087;DHT22;22893;50.572;7.234;2023-03-01T11:14:54;21.00;45.40
24087;DHT22;22893;50.572;7.234;2023-03-01T11:17:28;21.00;45.40
24087;DHT22;22893;50.572;7.234;2023-03-01T11:22:54;21.10;46.20
24087;DHT22;22893;50.572;7.234;2023-03-01T11:25:19;21.10;45.50
24087;DHT22;22893;50.572;7.234;2023-03-01T11:27:47;21.10;45.50
24087;DHT22;22893;50.572;7.234;2023-03-01T11:30:31;21.10;45.60
24087;DHT22;22893;50.572;7.234;2023-03-01T11:33:10;21.10;45.50
24087;DHT22;22893;50.572;7.234;2023-03-01T11:35:42;21.10;45.50
24087;DHT22;22893;50.572;7.234;2023-03-01T11:38:22;21.10;46.30
24087;DHT22;22893;50.572;7.234;2023-03-01T11:40:59;21.10;45.50
24087;DHT22;22893;50.572;7.234;2023-03-01T11:43:36;21.10;45.50
24087;DHT22;22893;50.572;7.234;2023-03-01T11:49:12;21.10;45.50
24087;DHT22;22893;50.572;7.234;2023-03-01T11:51:46;21.20;45.60
24087;DHT22;22893;50.572;7.234;2023-03-01T11:57:20;21.20;45.60
24087;DHT22;22893;50.572;7.234;2023-03-01T11:59:57;21.20;45.70
24087;DHT22;22893;50.572;7.234;2023-03-01T12:22:23;21.30;45.70
24087;DHT22;22893;50.572;7.234;2023-03-01T12:25:00;21.30;46.40
24087;DHT22;22893;50.572;7.234;2023-03-01T12:33:51;21.30;44.40
24087;DHT22;22893;50.572;7.234;2023-03-01T12:42:02;21.30;43.40
24087;DHT22;22893;50.572;7.234;2023-03-01T12:44:51;21.30;42.50
24087;DHT22;22893;50.572;7.234;2023-03-01T12:47:57;21.30;42.70
24087;DHT22;22893;50.572;7.234;2023-03-01T12:50:45;21.30;42.50
24087;DHT22;22893;50.572;7.234;2023-03-01T12:53:26;21.30;42.20
24087;DHT22;22893;50.572;7.234;2023-03-01T12:55:53;21.30;41.90
24087;DHT22;22893;50.572;7.234;2023-03-01T13:06:29;21.30;41.60
24087;DHT22;22893;50.572;7.234;2023-03-01T13:09:16;21.30;41.40
24087;DHT22;22893;50.572;7.234;2023-03-01T13:11:43;21.30;41.40
24087;DHT22;22893;50.572;7.234;2023-03-01T13:16:54;21.30;40.90
24087;DHT22;22893;50.572;7.234;2023-03-01T13:19:27;21.30;40.90
24087;DHT22;22893;50.572;7.234;2023-03-01T13:24:51;21.30;41.30
24087;DHT22;22893;50.572;7.234;2023-03-01T13:27:22;21.30;41.20
24087;DHT22;22893;50.572;7.234;2023-03-01T13:29:57;21.30;41.30
24087;DHT22;22893;50.572;7.234;2023-03-01T13:32:28;21.30;41.60
24087;DHT22;22893;50.572;7.234;2023-03-01T13:35:47;21.30;41.70
24087;DHT22;22893;50.572;7.234;2023-03-01T13:37:36;21.30;42.10
24087;DHT22;22893;50.572;7.234;2023-03-01T13:40:56;21.40;41.90
24087;DHT22;22893;50.572;7.234;2023-03-01T13:42:37;21.40;42.20
24087;DHT22;22893;50.572;7.234;2023-03-01T13:45:15;21.40;43.10
24087;DHT22;22893;50.572;7.234;2023-03-01T13:47:44;21.40;43.00
24087;DHT22;22893;50.572;7.234;2023-03-01T13:50:23;21.40;42.70
24087;DHT22;22893;50.572;7.234;2023-03-01T13:52:52;21.40;42.40
24087;DHT22;22893;50.572;7.234;2023-03-01T13:55:26;21.40;42.20
24087;DHT22;22893;50.572;7.234;2023-03-01T13:57:58;21.50;41.90
24087;DHT22;22893;50.572;7.234;2023-03-01T14:00:33;21.40;41.70
24087;DHT22;22893;50.572;7.234;2023-03-01T14:03:08;21.40;41.60
24087;DHT22;22893;50.572;7.234;2023-03-01T14:05:34;21.40;41.60
24087;DHT22;22893;50.572;7.234;2023-03-01T14:08:04;21.40;41.30
24087;DHT22;22893;50.572;7.234;2023-03-01T14:10:43;21.40;41.90
24087;DHT22;22893;50.572;7.234;2023-03-01T14:13:31;21.40;41.10
24087;DHT22;22893;50.572;7.234;2023-03-01T14:16:09;21.40;41.00
24087;DHT22;22893;50.572;7.234;2023-03-01T14:18:35;21.40;40.90
24087;DHT22;22893;50.572;7.234;2023-03-01T14:21:01;21.40;40.80
24087;DHT22;22893;50.572;7.234;2023-03-01T14:23:31;21.50;40.60
24087;DHT22;22893;50.572;7.234;2023-03-01T14:26:01;21.50;40.30
24087;DHT22;22893;50.572;7.234;2023-03-01T14:28:31;21.40;39.60
24087;DHT22;22893;50.572;7.234;2023-03-01T14:31:01;21.50;40.10
24087;DHT22;22893;50.572;7.234;2023-03-01T14:33:32;21.50;40.70
24087;DHT22;22893;50.572;7.234;2023-03-01T14:36:11;21.50;40.00
24087;DHT22;22893;50.572;7.234;2023-03-01T14:38:42;21.50;40.00
24087;DHT22;22893;50.572;7.234;2023-03-01T14:41:15;21.50;39.80
24087;DHT22;22893;50.572;7.234;2023-03-01T14:43:46;21.50;39.80
24087;DHT22;22893;50.572;7.234;2023-03-01T14:46:32;21.50;39.90
24087;DHT22;22893;50.572;7.234;2023-03-01T14:49:18;21.50;39.80
24087;DHT22;22893;50.572;7.234;2023-03-01T14:51:34;21.50;39.30
24087;DHT22;22893;50.572;7.234;2023-03-01T14:54:00;21.50;39.20
24087;DHT22;22893;50.572;7.234;2023-03-01T14:56:27;21.50;39.20
24087;DHT22;22893;50.572;7.234;2023-03-01T14:58:58;21.50;39.20
24087;DHT22;22893;50.572;7.234;2023-03-01T15:01:26;21.50;39.90
24087;DHT22;22893;50.572;7.234;2023-03-01T15:03:55;21.60;39.50
24087;DHT22;22893;50.572;7.234;2023-03-01T15:06:24;21.60;39.60
24087;DHT22;22893;50.572;7.234;2023-03-01T15:08:53;21.60;39.80
24087;DHT22;22893;50.572;7.234;2023-03-01T15:11:31;21.60;39.90
24087;DHT22;22893;50.572;7.234;2023-03-01T15:13:59;21.60;39.90
24087;DHT22;22893;50.572;7.234;2023-03-01T15:16:32;21.60;40.00
24087;DHT22;22893;50.572;7.234;2023-03-01T15:19:03;21.60;40.20
24087;DHT22;22893;50.572;7.234;2023-03-01T15:21:36;21.60;40.20
24087;DHT22;22893;50.572;7.234;2023-03-01T15:26:58;21.60;40.30
24087;DHT22;22893;50.572;7.234;2023-03-01T15:29:30;21.60;40.50
24087;DHT22;22893;50.572;7.234;2023-03-01T15:32:04;21.60;40.60
24087;DHT22;22893;50.572;7.234;2023-03-01T15:34:37;21.60;40.70
24087;DHT22;22893;50.572;7.234;2023-03-01T15:37:32;21.60;40.70
24087;DHT22;22893;50.572;7.234;2023-03-01T15:39:43;21.60;40.80
24087;DHT22;22893;50.572;7.234;2023-03-01T15:42:23;21.60;40.90
24087;DHT22;22893;50.572;7.234;2023-03-01T15:44:43;21.60;41.00
24087;DHT22;22893;50.572;7.234;2023-03-01T17:21:22;21.50;42.40
24087;DHT22;22893;50.572;7.234;2023-03-01T17:23:50;21.50;42.50
24087;DHT22;22893;50.572;7.234;2023-03-01T17:26:19;21.50;42.50
24087;DHT22;22893;50.572;7.234;2023-03-01T17:28:47;21.50;42.40
24087;DHT22;22893;50.572;7.234;2023-03-01T17:31:19;21.50;42.40
24087;DHT22;22893;50.572;7.234;2023-03-01T17:33:47;21.50;42.40
24087;DHT22;22893;50.572;7.234;2023-03-01T17:36:16;21.50;42.50
24087;DHT22;22893;50.572;7.234;2023-03-01T17:38:43;21.60;42.60
24087;DHT22;22893;50.572;7.234;2023-03-01T17:41:12;21.50;42.40
24087;DHT22;22893;50.572;7.234;2023-03-01T17:43:41;21.60;42.50
24087;DHT22;22893;50.572;7.234;2023-03-01T17:46:09;21.60;42.50
24087;DHT22;22893;50.572;7.234;2023-03-01T17:48:37;21.60;42.50
24087;DHT22;22893;50.572;7.234;2023-03-01T17:51:06;21.60;42.60
24087;DHT22;22893;50.572;7.234;2023-03-01T17:53:35;21.60;42.70
24087;DHT22;22893;50.572;7.234;2023-03-01T17:56:05;21.60;42.60
24087;DHT22;22893;50.572;7.234;2023-03-01T17:58:33;21.60;42.70
24087;DHT22;22893;50.572;7.234;2023-03-01T18:01:11;21.60;42.70
24087;DHT22;22893;50.572;7.234;2023-03-01T18:03:40;21.60;42.80
24087;DHT22;22893;50.572;7.234;2023-03-01T18:06:18;21.60;42.90
24087;DHT22;22893;50.572;7.234;2023-03-01T18:08:42;21.60;42.90
24087;DHT22;22893;50.572;7.234;2023-03-01T18:11:12;21.60;42.90
24087;DHT22;22893;50.572;7.234;2023-03-01T18:13:40;21.60;43.00
24087;DHT22;22893;50.572;7.234;2023-03-01T18:16:10;21.60;43.10
24087;DHT22;22893;50.572;7.234;2023-03-01T18:18:39;21.60;43.10
24087;DHT22;22893;50.572;7.234;2023-03-01T18:21:08;21.60;43.10
24087;DHT22;22893;50.572;7.234;2023-03-01T18:23:37;21.60;43.10
24087;DHT22;22893;50.572;7.234;2023-03-01T18:26:08;21.60;43.10
24087;DHT22;22893;50.572;7.234;2023-03-01T18:28:36;21.60;43.10
24087;DHT22;22893;50.572;7.234;2023-03-01T18:31:07;21.60;43.20
24087;DHT22;22893;50.572;7.234;2023-03-01T18:33:37;21.60;43.20
24087;DHT22;22893;50.572;7.234;2023-03-01T18:36:12;21.60;43.20
24087;DHT22;22893;50.572;7.234;2023-03-01T18:38:35;21.60;44.10
24087;DHT22;22893;50.572;7.234;2023-03-01T18:41:04;21.60;43.30
24087;DHT22;22893;50.572;7.234;2023-03-01T18:43:31;21.60;43.30
24087;DHT22;22893;50.572;7.234;2023-03-01T18:45:59;21.60;43.30
24087;DHT22;22893;50.572;7.234;2023-03-01T18:48:27;21.60;43.40
24087;DHT22;22893;50.572;7.234;2023-03-01T18:50:55;21.60;43.30